Time;durP1;ratioP1;P1;durP2;ratioP2;P2;SDS_P1;SDS_P2;PMS_P1;PMS_P2;Temp;Humidity;BMP_temperature;BMP_pressure;BME280_temperature;BME280_humidity;BME280_pressure;Samples;Min_cycle;Max_cycle;Signal;HPM_P1;HPM_P2
2022/12/22 03:27:11;;;;;;;47.83;26.70;;;1.80;99.90;;;;;;5069243;28;20725;-63
2022/12/22 03:29:38;;;;;;;48.67;27.57;;;1.80;99.90;;;;;;5043515;28;20202;-64
2022/12/22 03:32:05;;;;;;;44.37;25.20;;;1.80;99.90;;;;;;5047876;28;20212;-64
2022/12/22 03:34:31;;;;;;;45.30;27.20;;;1.80;99.90;;;;;;5047442;28;20224;-63
2022/12/22 03:37:00;;;;;;;42.40;25.13;;;1.80;99.90;;;;;;5048174;28;20655;-64
2022/12/22 03:39:26;;;;;;;45.83;27.77;;;1.90;99.90;;;;;;5047549;28;20229;-65
2022/12/22 03:47:21;;;;;;;54.03;32.67;;;1.90;99.90;;;;;;5048139;28;20696;-64
2022/12/22 03:49:48;;;;;;;47.50;29.43;;;2.00;99.90;;;;;;5047021;28;20213;-64
2022/12/22 03:52:16;;;;;;;44.67;27.00;;;2.00;99.90;;;;;;5047909;28;20205;-64
2022/12/22 03:54:43;;;;;;;41.80;24.63;;;2.00;99.90;;;;;;5048077;28;20212;-65
2022/12/22 03:57:09;;;;;;;44.23;26.07;;;2.00;99.90;;;;;;5047891;28;20217;-65
2022/12/22 03:59:36;;;;;;;40.60;25.23;;;2.00;99.90;;;;;;5046222;28;20655;-64
2022/12/22 04:02:03;;;;;;;48.60;28.87;;;2.10;99.90;;;;;;5045795;28;20205;-65
2022/12/22 04:04:30;;;;;;;41.67;25.73;;;2.10;99.90;;;;;;5043449;28;20234;-65
2022/12/22 04:06:56;;;;;;;45.23;26.53;;;2.10;99.90;;;;;;5034234;28;20210;-64
2022/12/22 04:09:26;;;;;;;44.83;26.50;;;2.10;99.90;;;;;;5034351;28;20210;-66
2022/12/22 04:14:37;;;;;;;68.63;39.30;;;2.00;99.90;;;;;;5033185;28;20204;-66
2022/12/22 04:17:05;;;;;;;58.03;34.33;;;2.00;99.90;;;;;;5030371;28;20209;-65
2022/12/22 04:19:34;;;;;;;51.47;30.43;;;2.00;99.90;;;;;;5033248;28;20198;-76
2022/12/22 04:22:01;;;;;;;53.30;31.83;;;2.00;99.90;;;;;;5032484;28;20256;-65
2022/12/22 04:24:29;;;;;;;51.10;32.23;;;2.00;99.90;;;;;;5033064;28;20221;-64
2022/12/22 04:26:56;;;;;;;56.30;33.50;;;2.00;99.90;;;;;;5032605;28;20209;-65
2022/12/22 04:29:22;;;;;;;57.63;34.77;;;2.00;99.90;;;;;;5034193;28;20202;-66
2022/12/22 04:31:49;;;;;;;56.77;34.10;;;2.00;99.90;;;;;;5033682;28;20221;-65
2022/12/22 04:34:16;;;;;;;55.83;33.87;;;1.90;99.90;;;;;;5033819;28;20202;-64
2022/12/22 04:36:43;;;;;;;54.17;32.23;;;1.90;99.90;;;;;;5033101;28;20212;-66
2022/12/22 04:39:10;;;;;;;52.90;31.73;;;1.90;99.90;;;;;;5033159;28;20244;-65
2022/12/22 04:41:38;;;;;;;50.90;30.13;;;1.90;99.90;;;;;;5033541;28;20221;-65
2022/12/22 04:44:05;;;;;;;49.93;29.50;;;2.00;99.90;;;;;;5034109;28;20579;-65
2022/12/22 04:46:32;;;;;;;50.03;29.47;;;2.00;99.90;;;;;;5033373;28;20210;-65
2022/12/22 04:48:58;;;;;;;48.23;29.60;;;2.10;99.90;;;;;;5032697;28;20587;-66
2022/12/22 04:51:25;;;;;;;51.17;30.37;;;2.00;99.90;;;;;;5033720;28;20674;-66
2022/12/22 04:53:52;;;;;;;53.70;31.70;;;2.10;99.90;;;;;;5033704;28;20205;-65
2022/12/22 04:56:19;;;;;;;49.30;30.23;;;2.10;99.90;;;;;;5033737;28;20202;-65
2022/12/22 04:58:47;;;;;;;48.80;30.07;;;2.10;99.90;;;;;;5033508;28;20548;-64
2022/12/22 05:01:15;;;;;;;47.40;29.10;;;2.10;99.90;;;;;;5033335;28;20213;-65
2022/12/22 05:03:45;;;;;;;48.57;28.83;;;2.10;99.90;;;;;;5033080;28;20725;-70
2022/12/22 05:06:12;;;;;;;47.93;28.87;;;2.10;99.90;;;;;;5033813;28;20210;-74
2022/12/22 05:08:39;;;;;;;46.20;28.23;;;2.10;99.90;;;;;;5033498;28;20206;-64
2022/12/22 05:11:06;;;;;;;47.87;27.37;;;2.10;99.90;;;;;;5033385;28;20202;-65
2022/12/22 05:13:33;;;;;;;49.83;28.43;;;2.20;99.90;;;;;;5032480;28;20226;-65
2022/12/22 05:16:06;;;;;;;44.23;27.17;;;2.20;99.90;;;;;;5032716;28;20249;-68
2022/12/22 05:18:33;;;;;;;46.07;26.27;;;2.20;99.90;;;;;;5032997;28;20209;-68
2022/12/22 05:21:03;;;;;;;49.87;27.73;;;2.20;99.90;;;;;;5033097;28;20206;-67
2022/12/22 05:23:30;;;;;;;48.70;28.90;;;2.20;99.90;;;;;;5031141;28;20214;-67
2022/12/22 05:25:56;;;;;;;53.83;31.60;;;2.20;99.90;;;;;;5033042;28;20685;-66
2022/12/22 05:28:23;;;;;;;49.00;30.77;;;2.20;99.90;;;;;;5032860;28;20228;-66
2022/12/22 05:30:50;;;;;;;54.87;32.17;;;2.20;99.90;;;;;;5033094;28;20202;-65
2022/12/22 05:33:18;;;;;;;53.93;31.33;;;2.20;99.90;;;;;;5031750;28;20213;-66
2022/12/22 05:35:45;;;;;;;53.37;31.03;;;2.20;99.90;;;;;;5032495;28;20214;-66
2022/12/22 05:38:12;;;;;;;52.20;31.47;;;2.20;99.90;;;;;;5032752;28;20240;-66
2022/12/22 05:40:39;;;;;;;46.77;28.07;;;2.20;99.90;;;;;;5032812;28;20202;-67
2022/12/22 05:43:05;;;;;;;48.60;27.73;;;2.30;99.90;;;;;;5032765;28;20213;-71
2022/12/22 05:45:32;;;;;;;48.80;29.80;;;2.30;99.90;;;;;;5028322;28;20210;-75
2022/12/22 05:47:59;;;;;;;50.50;28.73;;;2.30;99.90;;;;;;5032389;28;20208;-67
2022/12/22 05:50:27;;;;;;;51.93;28.97;;;2.30;99.90;;;;;;5032634;28;20206;-68
2022/12/22 05:52:54;;;;;;;49.10;29.17;;;2.30;99.90;;;;;;5012973;28;20222;-68
2022/12/22 05:55:21;;;;;;;54.67;32.33;;;2.30;99.90;;;;;;5015370;28;20209;-71
2022/12/22 05:57:48;;;;;;;51.37;31.57;;;2.30;99.90;;;;;;5032562;28;20559;-67
2022/12/22 06:00:16;;;;;;;51.70;31.83;;;2.20;99.90;;;;;;5031773;28;20210;-70
2022/12/22 06:02:44;;;;;;;53.33;31.90;;;2.20;99.90;;;;;;5032606;28;20229;-71
2022/12/22 06:05:13;;;;;;;51.83;30.77;;;2.20;99.90;;;;;;5032326;28;20227;-74
2022/12/22 06:07:45;;;;;;;54.93;32.27;;;2.30;99.90;;;;;;5031708;28;20560;-65
2022/12/22 06:10:12;;;;;;;59.53;33.63;;;2.30;99.90;;;;;;5030437;28;20554;-67
2022/12/22 06:12:39;;;;;;;53.97;32.70;;;2.20;99.90;;;;;;5030895;28;20684;-69
2022/12/22 06:15:07;;;;;;;59.40;35.17;;;2.20;99.90;;;;;;5032416;28;20202;-68
2022/12/22 06:17:34;;;;;;;52.50;31.33;;;2.20;99.90;;;;;;5032163;28;20209;-65
2022/12/22 06:20:01;;;;;;;54.00;31.87;;;2.20;99.90;;;;;;5032199;28;20213;-73
2022/12/22 06:22:28;;;;;;;53.63;30.90;;;2.30;99.90;;;;;;5031090;28;20202;-74
2022/12/22 06:24:56;;;;;;;52.63;30.73;;;2.20;99.90;;;;;;5031543;28;20230;-67
2022/12/22 06:27:23;;;;;;;53.30;31.10;;;2.30;99.90;;;;;;5030450;28;20217;-67
2022/12/22 06:29:50;;;;;;;54.93;31.07;;;2.30;99.90;;;;;;5030366;28;20584;-66
2022/12/22 06:32:17;;;;;;;51.60;30.60;;;2.30;99.90;;;;;;5030466;28;20198;-67
2022/12/22 06:34:44;;;;;;;52.53;32.83;;;2.30;99.90;;;;;;5029505;28;20378;-66
2022/12/22 06:37:10;;;;;;;51.33;31.80;;;2.30;99.90;;;;;;5027450;28;20205;-67
2022/12/22 06:39:37;;;;;;;52.27;31.13;;;2.30;99.90;;;;;;5030781;28;20202;-67
2022/12/22 06:44:51;;;;;;;55.30;32.73;;;2.40;99.90;;;;;;5028478;28;20794;-67
2022/12/22 06:47:18;;;;;;;51.90;30.97;;;2.40;99.90;;;;;;5030578;28;20198;-66
2022/12/22 06:49:44;;;;;;;51.57;31.33;;;2.40;99.90;;;;;;5030681;28;20652;-66
2022/12/22 06:52:11;;;;;;;53.57;31.60;;;2.40;99.90;;;;;;5027924;28;20198;-68
2022/12/22 06:54:38;;;;;;;50.80;31.83;;;2.40;99.90;;;;;;5030352;28;20206;-67
2022/12/22 06:57:06;;;;;;;54.70;33.00;;;2.30;99.90;;;;;;5029610;28;20201;-68
2022/12/22 06:59:33;;;;;;;54.90;33.03;;;2.40;99.90;;;;;;5028487;28;20213;-67
2022/12/22 07:01:59;;;;;;;56.57;33.10;;;2.40;99.90;;;;;;5029883;28;20213;-66
2022/12/22 07:04:28;;;;;;;57.57;32.63;;;2.40;99.90;;;;;;5030789;28;20242;-67
2022/12/22 07:06:55;;;;;;;55.97;33.40;;;2.40;99.90;;;;;;5031499;28;20210;-68
2022/12/22 07:09:22;;;;;;;52.63;31.93;;;2.40;99.90;;;;;;5031343;28;20202;-67
2022/12/22 07:11:48;;;;;;;57.40;33.77;;;2.40;99.90;;;;;;5028594;28;20206;-68
2022/12/22 07:14:16;;;;;;;55.17;33.23;;;2.50;99.90;;;;;;5031339;28;20220;-71
2022/12/22 07:16:44;;;;;;;55.00;33.53;;;2.50;99.90;;;;;;5031578;28;20687;-66
2022/12/22 07:19:11;;;;;;;56.30;34.63;;;2.50;99.90;;;;;;5031342;28;20296;-69
2022/12/22 07:21:38;;;;;;;60.83;34.43;;;2.50;99.90;;;;;;5029581;28;20571;-68
2022/12/22 07:24:05;;;;;;;56.53;33.57;;;2.40;99.90;;;;;;5025348;28;20249;-70
2022/12/22 07:26:32;;;;;;;59.47;35.47;;;2.50;99.90;;;;;;5031504;28;20210;-69
2022/12/22 07:28:59;;;;;;;53.77;33.63;;;2.50;99.90;;;;;;5030327;28;20210;-67
2022/12/22 07:31:27;;;;;;;59.23;34.67;;;2.60;99.90;;;;;;5030947;28;20202;-69
2022/12/22 07:33:53;;;;;;;56.23;33.47;;;2.60;99.90;;;;;;5028173;28;20211;-68
2022/12/22 07:36:21;;;;;;;57.77;34.13;;;2.60;99.90;;;;;;5030914;28;20210;-67
2022/12/22 07:38:49;;;;;;;53.47;32.33;;;2.60;99.90;;;;;;5031423;28;20210;-69
2022/12/22 07:44:04;;;;;;;56.73;33.93;;;2.60;99.90;;;;;;5032535;28;20225;-68
2022/12/22 07:46:36;;;;;;;53.27;31.57;;;2.70;99.90;;;;;;5021143;28;20928;-69
2022/12/22 07:51:48;;;;;;;49.53;29.60;;;2.80;99.90;;;;;;5014096;28;20210;-72
2022/12/22 18:17:59;;;;;;;78.37;44.37;;;4.20;99.90;;;;;;6130504;22;1384977;-76
2022/12/22 18:20:27;;;;;;;77.07;42.00;;;4.20;99.90;;;;;;6243453;23;20401;-74
2022/12/22 18:22:56;;;;;;;79.70;45.47;;;4.10;99.90;;;;;;6237765;23;20184;-76
2022/12/22 18:25:26;;;;;;;76.23;42.70;;;4.10;99.90;;;;;;6238060;23;20172;-75
2022/12/22 18:27:53;;;;;;;76.13;43.20;;;4.20;99.90;;;;;;6238157;23;20181;-74
2022/12/22 18:30:22;;;;;;;79.53;44.53;;;4.20;99.90;;;;;;6236376;22;20218;-75
2022/12/22 18:32:50;;;;;;;79.40;44.67;;;4.20;99.90;;;;;;6238373;23;20180;-75
2022/12/22 18:35:18;;;;;;;81.67;44.83;;;4.20;99.90;;;;;;6237355;22;20196;-75
2022/12/22 18:37:45;;;;;;;84.20;45.83;;;4.20;99.90;;;;;;6238457;23;20184;-75
2022/12/22 18:40:22;;;;;;;93.07;48.73;;;4.20;99.90;;;;;;6237982;23;20189;-77
2022/12/22 18:42:50;;;;;;;87.60;47.80;;;4.20;99.90;;;;;;6238630;23;20167;-77
2022/12/22 18:45:18;;;;;;;87.60;48.70;;;4.20;99.90;;;;;;6238300;22;20228;-77
2022/12/22 18:47:44;;;;;;;84.70;47.80;;;4.20;99.90;;;;;;6238334;23;20191;-73
2022/12/22 18:50:15;;;;;;;91.30;49.63;;;4.10;99.90;;;;;;6237670;23;20627;-75
2022/12/22 18:52:44;;;;;;;88.90;49.93;;;4.10;99.90;;;;;;6239152;23;20165;-73
2022/12/22 18:55:21;;;;;;;85.63;47.40;;;4.10;99.90;;;;;;6239825;23;20200;-76
2022/12/22 18:57:50;;;;;;;89.93;47.40;;;4.10;99.90;;;;;;6238330;23;20171;-73
2022/12/22 19:00:18;;;;;;;85.47;47.17;;;4.10;99.90;;;;;;6238614;23;20181;-74
2022/12/22 19:02:46;;;;;;;87.88;51.03;;;4.10;99.90;;;;;;6237313;23;20393;-75
2022/12/22 19:05:18;;;;;;;89.33;46.80;;;4.10;99.90;;;;;;6237507;23;20219;-72
2022/12/22 19:07:46;;;;;;;87.33;48.07;;;4.20;99.90;;;;;;6238730;23;20649;-74
2022/12/22 19:10:17;;;;;;;86.23;44.63;;;4.10;99.90;;;;;;6236994;22;20204;-74
2022/12/22 19:12:46;;;;;;;80.90;44.10;;;4.10;99.90;;;;;;6239566;23;20177;-74
2022/12/22 19:15:20;;;;;;;92.20;46.90;;;4.10;99.90;;;;;;6238269;23;20669;-75
2022/12/22 19:17:49;;;;;;;94.28;50.67;;;4.10;99.90;;;;;;6236958;23;20401;-73
2022/12/22 19:20:17;;;;;;;90.90;47.33;;;4.10;99.90;;;;;;6239286;23;20180;-73
2022/12/22 19:22:46;;;;;;;91.47;47.30;;;4.10;99.90;;;;;;6239471;23;20626;-74
2022/12/22 19:25:14;;;;;;;82.20;43.97;;;4.10;99.90;;;;;;6239507;23;20199;-73
2022/12/22 19:27:41;;;;;;;89.13;47.20;;;4.10;99.90;;;;;;6239400;23;20213;-74
2022/12/22 19:30:15;;;;;;;83.67;46.60;;;4.10;99.90;;;;;;6239184;23;20181;-74
2022/12/22 19:32:46;;;;;;;91.67;48.27;;;4.00;99.90;;;;;;6239840;23;20254;-73
2022/12/22 19:35:14;;;;;;;86.93;46.40;;;4.00;99.90;;;;;;6239192;23;20204;-71
2022/12/22 19:37:41;;;;;;;88.23;47.73;;;3.90;99.90;;;;;;6238656;23;20177;-74
2022/12/22 19:40:11;;;;;;;103.23;51.20;;;3.90;99.90;;;;;;6238928;23;20496;-72
2022/12/22 19:42:39;;;;;;;101.27;51.63;;;3.80;99.90;;;;;;6238856;23;20177;-74
2022/12/22 19:45:15;;;;;;;95.00;53.17;;;3.70;99.90;;;;;;6239336;23;20177;-75
2022/12/22 19:47:42;;;;;;;92.63;50.13;;;3.70;99.90;;;;;;6238378;23;20167;-74
2022/12/22 19:50:15;;;;;;;95.73;51.60;;;3.80;99.90;;;;;;6239434;22;20511;-75
2022/12/22 19:52:42;;;;;;;95.40;53.30;;;3.70;99.90;;;;;;6238195;23;20177;-71
2022/12/22 19:55:10;;;;;;;102.83;54.17;;;3.70;99.90;;;;;;6238293;23;20205;-72
2022/12/22 19:57:40;;;;;;;97.07;53.43;;;3.70;99.90;;;;;;6238666;22;20200;-73
2022/12/22 20:00:18;;;;;;;101.97;53.60;;;3.70;99.90;;;;;;6239893;23;20180;-75
2022/12/22 20:02:45;;;;;;;100.90;55.63;;;3.70;99.90;;;;;;6236406;23;20709;-72
2022/12/22 20:05:29;;;;;;;109.07;55.53;;;3.70;99.90;;;;;;6237002;23;20184;-73
2022/12/22 20:07:59;;;;;;;96.80;51.10;;;3.70;99.90;;;;;;6239718;23;20495;-75
2022/12/22 20:10:29;;;;;;;102.43;52.30;;;3.70;99.90;;;;;;6239519;23;20180;-72
2022/12/22 20:12:57;;;;;;;102.67;54.07;;;3.70;99.90;;;;;;6238686;23;20183;-74
2022/12/22 20:15:28;;;;;;;104.17;52.70;;;3.70;99.90;;;;;;6239494;23;20239;-78
2022/12/22 20:17:56;;;;;;;97.77;52.67;;;3.70;99.90;;;;;;6238318;23;20215;-73
2022/12/22 20:20:26;;;;;;;89.50;49.30;;;3.70;99.90;;;;;;6238548;23;20180;-75
2022/12/22 20:22:56;;;;;;;127.20;72.97;;;3.70;99.90;;;;;;6237421;23;20188;-75
2022/12/22 20:25:25;;;;;;;102.87;55.60;;;3.60;99.90;;;;;;6239325;23;20308;-74
2022/12/22 20:27:55;;;;;;;102.20;51.63;;;3.60;99.90;;;;;;6239060;23;20263;-74
2022/12/22 20:30:24;;;;;;;94.27;50.37;;;3.60;99.90;;;;;;6239813;23;20181;-76
2022/12/22 20:32:53;;;;;;;95.90;52.10;;;3.60;99.90;;;;;;6239380;23;20200;-74
2022/12/22 20:35:20;;;;;;;100.00;52.70;;;3.60;99.90;;;;;;6239574;23;20184;-74
2022/12/22 20:37:47;;;;;;;100.00;50.67;;;3.60;99.90;;;;;;6239152;23;20752;-74
2022/12/22 20:40:22;;;;;;;88.90;49.07;;;3.60;99.90;;;;;;6238720;23;20221;-73
2022/12/22 20:42:50;;;;;;;92.20;48.87;;;3.60;99.90;;;;;;6238596;22;20165;-75
2022/12/22 20:45:20;;;;;;;94.03;49.43;;;3.60;99.90;;;;;;6239404;23;20268;-75
2022/12/22 20:47:47;;;;;;;97.63;52.60;;;3.60;99.90;;;;;;6239251;22;20180;-73
2022/12/22 20:50:23;;;;;;;88.37;49.00;;;3.60;99.90;;;;;;6239422;23;20184;-74
2022/12/22 20:52:50;;;;;;;97.67;51.23;;;3.60;99.90;;;;;;6238872;22;20180;-76
2022/12/22 20:55:19;;;;;;;92.93;50.37;;;3.70;99.90;;;;;;6239212;23;20183;-74
2022/12/22 20:57:47;;;;;;;97.77;51.17;;;3.70;99.90;;;;;;6238088;22;20246;-74
